sensor_id;sensor_type;location;lat;lon;timestamp;pressure;altitude;pressure_sealevel;temperature;humidity
80294;BME280;69594;43.516;1.498;2023-06-24T00:01:26;100419.44;;;20.94;64.03
80294;BME280;69594;43.516;1.498;2023-06-24T00:03:52;100412.66;;;20.91;63.80
80294;BME280;69594;43.516;1.498;2023-06-24T00:06:21;100408.16;;;20.92;63.95
80294;BME280;69594;43.516;1.498;2023-06-24T00:08:50;100419.44;;;20.87;63.96
80294;BME280;69594;43.516;1.498;2023-06-24T00:11:15;100413.69;;;20.90;63.40
80294;BME280;69594;43.516;1.498;2023-06-24T00:13:42;100410.00;;;20.91;63.51
80294;BME280;69594;43.516;1.498;2023-06-24T00:16:08;100410.19;;;20.70;64.62
80294;BME280;69594;43.516;1.498;2023-06-24T00:18:36;100408.16;;;20.72;64.08
80294;BME280;69594;43.516;1.498;2023-06-24T00:21:02;100406.91;;;20.81;63.83
80294;BME280;69594;43.516;1.498;2023-06-24T00:23:29;100405.88;;;20.89;63.53
80294;BME280;69594;43.516;1.498;2023-06-24T00:25:56;100395.03;;;20.90;63.65
80294;BME280;69594;43.516;1.498;2023-06-24T00:28:22;100400.75;;;20.94;63.60
80294;BME280;69594;43.516;1.498;2023-06-24T00:30:48;100396.06;;;21.02;63.35
80294;BME280;69594;43.516;1.498;2023-06-24T00:33:14;100397.50;;;20.98;63.40
80294;BME280;69594;43.516;1.498;2023-06-24T00:35:42;100385.38;;;21.02;63.73
80294;BME280;69594;43.516;1.498;2023-06-24T00:38:08;100387.41;;;20.94;63.50
80294;BME280;69594;43.516;1.498;2023-06-24T00:40:38;100380.28;;;20.88;64.08
80294;BME280;69594;43.516;1.498;2023-06-24T00:43:05;100384.75;;;20.94;63.44
80294;BME280;69594;43.516;1.498;2023-06-24T00:45:31;100386.00;;;20.98;63.51
80294;BME280;69594;43.516;1.498;2023-06-24T00:47:58;100383.13;;;21.06;63.52
80294;BME280;69594;43.516;1.498;2023-06-24T00:50:25;100370.41;;;21.08;63.08
80294;BME280;69594;43.516;1.498;2023-06-24T00:52:51;100374.09;;;21.00;63.48
80294;BME280;69594;43.516;1.498;2023-06-24T00:55:16;100376.13;;;21.05;63.05
80294;BME280;69594;43.516;1.498;2023-06-24T00:57:49;100379.03;;;21.03;63.58
80294;BME280;69594;43.516;1.498;2023-06-24T01:00:20;100369.59;;;21.01;63.68
80294;BME280;69594;43.516;1.498;2023-06-24T01:02:47;100363.84;;;20.91;63.62
80294;BME280;69594;43.516;1.498;2023-06-24T01:05:13;100360.56;;;20.82;64.11
80294;BME280;69594;43.516;1.498;2023-06-24T01:07:41;100355.22;;;20.75;64.29
80294;BME280;69594;43.516;1.498;2023-06-24T01:10:08;100362.00;;;20.78;64.42
80294;BME280;69594;43.516;1.498;2023-06-24T01:12:39;100356.47;;;20.66;64.97
80294;BME280;69594;43.516;1.498;2023-06-24T01:15:07;100351.75;;;20.55;65.21
80294;BME280;69594;43.516;1.498;2023-06-24T01:23:00;100335.31;;;20.32;66.97
80294;BME280;69594;43.516;1.498;2023-06-24T01:25:40;100338.78;;;20.32;66.68
80294;BME280;69594;43.516;1.498;2023-06-24T01:29:00;100327.66;;;20.16;67.25
80294;BME280;69594;43.516;1.498;2023-06-24T01:31:39;100331.19;;;20.29;66.21
80294;BME280;69594;43.516;1.498;2023-06-24T01:37:03;100332.75;;;20.11;66.98
80294;BME280;69594;43.516;1.498;2023-06-24T01:39:34;100334.00;;;20.08;67.31
80294;BME280;69594;43.516;1.498;2023-06-24T01:42:07;100328.47;;;20.10;66.88
80294;BME280;69594;43.516;1.498;2023-06-24T01:44:38;100328.06;;;20.13;66.79
80294;BME280;69594;43.516;1.498;2023-06-24T01:47:08;100330.94;;;20.18;67.01
80294;BME280;69594;43.516;1.498;2023-06-24T01:49:39;100334.44;;;20.18;66.36
80294;BME280;69594;43.516;1.498;2023-06-24T01:52:07;100322.94;;;20.11;66.69
80294;BME280;69594;43.516;1.498;2023-06-24T01:54:40;100319.88;;;20.08;67.58
80294;BME280;69594;43.516;1.498;2023-06-24T01:57:08;100323.97;;;20.10;67.29
80294;BME280;69594;43.516;1.498;2023-06-24T01:59:38;100335.88;;;20.14;66.91
80294;BME280;69594;43.516;1.498;2023-06-24T02:02:06;100320.09;;;20.13;67.20
80294;BME280;69594;43.516;1.498;2023-06-24T02:04:33;100317.41;;;20.13;67.16
80294;BME280;69594;43.516;1.498;2023-06-24T02:07:01;100318.22;;;20.07;67.67
80294;BME280;69594;43.516;1.498;2023-06-24T02:09:29;100323.16;;;20.10;67.48
80294;BME280;69594;43.516;1.498;2023-06-24T02:11:57;100318.03;;;20.08;67.20
80294;BME280;69594;43.516;1.498;2023-06-24T02:14:25;100317.63;;;20.05;67.60
80294;BME280;69594;43.516;1.498;2023-06-24T02:16:54;100318.41;;;19.99;67.79
80294;BME280;69594;43.516;1.498;2023-06-24T02:19:27;100314.50;;;20.01;67.45
80294;BME280;69594;43.516;1.498;2023-06-24T02:21:56;100314.53;;;19.94;67.14
80294;BME280;69594;43.516;1.498;2023-06-24T02:24:23;100312.88;;;19.93;67.44
80294;BME280;69594;43.516;1.498;2023-06-24T02:26:49;100314.09;;;19.91;67.58
80294;BME280;69594;43.516;1.498;2023-06-24T02:29:16;100320.41;;;19.83;67.58
80294;BME280;69594;43.516;1.498;2023-06-24T02:31:43;100317.13;;;19.81;67.58
80294;BME280;69594;43.516;1.498;2023-06-24T02:34:08;100309.94;;;19.75;67.63
80294;BME280;69594;43.516;1.498;2023-06-24T02:36:34;100300.91;;;19.63;67.73
80294;BME280;69594;43.516;1.498;2023-06-24T02:39:00;100307.44;;;19.61;68.23
80294;BME280;69594;43.516;1.498;2023-06-24T02:41:25;100301.88;;;19.56;68.06
80294;BME280;69594;43.516;1.498;2023-06-24T02:43:51;100304.50;;;19.49;68.31
80294;BME280;69594;43.516;1.498;2023-06-24T02:46:17;100294.69;;;19.49;68.41
80294;BME280;69594;43.516;1.498;2023-06-24T02:48:45;100303.63;;;19.42;68.91
80294;BME280;69594;43.516;1.498;2023-06-24T02:51:10;100294.78;;;19.35;69.59
80294;BME280;69594;43.516;1.498;2023-06-24T02:53:38;100301.34;;;19.39;69.15
80294;BME280;69594;43.516;1.498;2023-06-24T02:56:05;100297.31;;;19.43;69.04
80294;BME280;69594;43.516;1.498;2023-06-24T02:58:32;100300.75;;;19.37;69.02
80294;BME280;69594;43.516;1.498;2023-06-24T03:01:01;100304.81;;;19.33;69.25
80294;BME280;69594;43.516;1.498;2023-06-24T03:03:28;100298.41;;;19.21;69.96
80294;BME280;69594;43.516;1.498;2023-06-24T03:05:55;100296.94;;;19.18;69.86
80294;BME280;69594;43.516;1.498;2023-06-24T03:08:24;100292.91;;;19.22;69.47
80294;BME280;69594;43.516;1.498;2023-06-24T03:10:59;100297.59;;;19.20;69.31
80294;BME280;69594;43.516;1.498;2023-06-24T03:13:25;100303.91;;;19.19;69.50
80294;BME280;69594;43.516;1.498;2023-06-24T03:15:51;100308.81;;;19.16;69.96
80294;BME280;69594;43.516;1.498;2023-06-24T03:18:17;100301.84;;;19.15;69.85
80294;BME280;69594;43.516;1.498;2023-06-24T03:20:43;100300.19;;;19.14;69.50
80294;BME280;69594;43.516;1.498;2023-06-24T03:23:08;100290.34;;;19.07;69.97
80294;BME280;69594;43.516;1.498;2023-06-24T03:25:37;100301.19;;;19.06;69.67
80294;BME280;69594;43.516;1.498;2023-06-24T03:28:06;100295.06;;;19.05;70.17
80294;BME280;69594;43.516;1.498;2023-06-24T03:30:34;100294.19;;;18.98;70.66
80294;BME280;69594;43.516;1.498;2023-06-24T03:33:00;100294.81;;;19.00;70.28
80294;BME280;69594;43.516;1.498;2023-06-24T03:35:25;100288.28;;;19.03;70.16
80294;BME280;69594;43.516;1.498;2023-06-24T03:37:52;100292.59;;;19.04;70.20
80294;BME280;69594;43.516;1.498;2023-06-24T03:40:18;100292.81;;;19.09;70.09
80294;BME280;69594;43.516;1.498;2023-06-24T03:42:43;100292.63;;;19.10;70.06
80294;BME280;69594;43.516;1.498;2023-06-24T03:45:09;100291.41;;;19.13;69.72
80294;BME280;69594;43.516;1.498;2023-06-24T03:47:34;100298.78;;;19.18;69.97
80294;BME280;69594;43.516;1.498;2023-06-24T03:50:00;100296.72;;;19.13;70.08
80294;BME280;69594;43.516;1.498;2023-06-24T03:52:25;100292.03;;;19.15;69.65
80294;BME280;69594;43.516;1.498;2023-06-24T03:54:52;100288.75;;;19.13;69.70
80294;BME280;69594;43.516;1.498;2023-06-24T03:57:18;100287.91;;;19.13;69.72
80294;BME280;69594;43.516;1.498;2023-06-24T03:59:44;100286.84;;;19.07;69.56
80294;BME280;69594;43.516;1.498;2023-06-24T04:02:09;100286.84;;;19.07;69.62
80294;BME280;69594;43.516;1.498;2023-06-24T04:04:35;100292.09;;;18.94;70.15
80294;BME280;69594;43.516;1.498;2023-06-24T04:07:01;100295.47;;;18.81;70.10
80294;BME280;69594;43.516;1.498;2023-06-24T04:09:29;100304.44;;;18.74;70.31
80294;BME280;69594;43.516;1.498;2023-06-24T04:11:54;100296.41;;;18.67;70.45
80294;BME280;69594;43.516;1.498;2023-06-24T04:14:20;100304.38;;;18.67;70.65
80294;BME280;69594;43.516;1.498;2023-06-24T04:16:47;100294.75;;;18.66;70.71
80294;BME280;69594;43.516;1.498;2023-06-24T04:19:12;100284.38;;;18.71;70.60
80294;BME280;69594;43.516;1.498;2023-06-24T04:21:37;100295.41;;;18.68;70.47
80294;BME280;69594;43.516;1.498;2023-06-24T04:24:04;100285.53;;;18.62;70.91
80294;BME280;69594;43.516;1.498;2023-06-24T04:26:30;100287.38;;;18.61;71.01
80294;BME280;69594;43.516;1.498;2023-06-24T04:28:55;100291.84;;;18.61;70.74
80294;BME280;69594;43.516;1.498;2023-06-24T04:31:21;100284.09;;;18.59;70.97
80294;BME280;69594;43.516;1.498;2023-06-24T04:33:46;100280.28;;;18.68;70.55
80294;BME280;69594;43.516;1.498;2023-06-24T04:36:12;100283.19;;;18.74;70.82
80294;BME280;69594;43.516;1.498;2023-06-24T04:38:37;100285.66;;;18.75;70.76
80294;BME280;69594;43.516;1.498;2023-06-24T04:41:03;100290.63;;;18.85;70.33
80294;BME280;69594;43.516;1.498;2023-06-24T04:43:29;100288.19;;;18.90;69.86
80294;BME280;69594;43.516;1.498;2023-06-24T04:45:54;100287.84;;;18.99;69.63
80294;BME280;69594;43.516;1.498;2023-06-24T04:48:23;100288.28;;;19.03;69.72
80294;BME280;69594;43.516;1.498;2023-06-24T04:50:49;100294.47;;;19.10;69.61
80294;BME280;69594;43.516;1.498;2023-06-24T04:53:15;100293.28;;;19.19;69.28
80294;BME280;69594;43.516;1.498;2023-06-24T04:55:40;100292.91;;;19.29;69.10
80294;BME280;69594;43.516;1.498;2023-06-24T04:58:06;100303.56;;;19.29;69.12
80294;BME280;69594;43.516;1.498;2023-06-24T05:00:31;100294.00;;;19.41;68.55
80294;BME280;69594;43.516;1.498;2023-06-24T05:02:57;100294.94;;;19.61;68.10
80294;BME280;69594;43.516;1.498;2023-06-24T05:05:22;100293.53;;;19.65;68.23
80294;BME280;69594;43.516;1.498;2023-06-24T05:07:48;100297.25;;;19.77;67.51
80294;BME280;69594;43.516;1.498;2023-06-24T05:10:14;100286.25;;;20.00;67.22
80294;BME280;69594;43.516;1.498;2023-06-24T05:12:40;100296.44;;;22.80;60.14
80294;BME280;69594;43.516;1.498;2023-06-24T05:15:06;100294.75;;;25.41;53.07
80294;BME280;69594;43.516;1.498;2023-06-24T05:17:32;100303.69;;;25.07;53.28
80294;BME280;69594;43.516;1.498;2023-06-24T05:19:58;100296.88;;;23.38;57.94
80294;BME280;69594;43.516;1.498;2023-06-24T05:22:24;100292.00;;;22.67;59.68
80294;BME280;69594;43.516;1.498;2023-06-24T05:24:49;100293.41;;;22.20;60.71
80294;BME280;69594;43.516;1.498;2023-06-24T05:27:14;100298.09;;;21.87;61.83
80294;BME280;69594;43.516;1.498;2023-06-24T05:29:40;100295.69;;;24.42;55.60
80294;BME280;69594;43.516;1.498;2023-06-24T05:32:06;100283.25;;;27.79;47.85
80294;BME280;69594;43.516;1.498;2023-06-24T05:34:32;100290.59;;;29.89;43.64
80294;BME280;69594;43.516;1.498;2023-06-24T05:36:58;100289.81;;;31.05;41.67
80294;BME280;69594;43.516;1.498;2023-06-24T05:39:24;100287.69;;;32.44;39.33
80294;BME280;69594;43.516;1.498;2023-06-24T05:41:49;100305.69;;;33.21;38.10
80294;BME280;69594;43.516;1.498;2023-06-24T05:44:15;100312.72;;;33.89;37.05
80294;BME280;69594;43.516;1.498;2023-06-24T05:46:43;100307.66;;;34.52;35.90
80294;BME280;69594;43.516;1.498;2023-06-24T05:49:08;100302.56;;;35.24;34.96
80294;BME280;69594;43.516;1.498;2023-06-24T05:51:34;100312.81;;;35.82;33.99
80294;BME280;69594;43.516;1.498;2023-06-24T05:54:01;100311.25;;;36.25;33.12
80294;BME280;69594;43.516;1.498;2023-06-24T05:56:28;100301.81;;;36.84;32.06
80294;BME280;69594;43.516;1.498;2023-06-24T05:58:54;100308.81;;;36.99;31.71
80294;BME280;69594;43.516;1.498;2023-06-24T06:01:19;100308.31;;;37.36;31.43
80294;BME280;69594;43.516;1.498;2023-06-24T06:03:44;100305.50;;;37.93;30.63
80294;BME280;69594;43.516;1.498;2023-06-24T06:06:10;100310.50;;;37.82;30.32
80294;BME280;69594;43.516;1.498;2023-06-24T06:08:35;100309.22;;;38.49;29.72
80294;BME280;69594;43.516;1.498;2023-06-24T06:11:01;100306.72;;;38.73;29.30
80294;BME280;69594;43.516;1.498;2023-06-24T06:13:28;100300.66;;;39.35;28.54
80294;BME280;69594;43.516;1.498;2023-06-24T06:15:53;100296.94;;;39.60;28.27
80294;BME280;69594;43.516;1.498;2023-06-24T06:18:19;100292.25;;;39.40;28.57
80294;BME280;69594;43.516;1.498;2023-06-24T06:20:44;100290.78;;;39.42;28.23
80294;BME280;69594;43.516;1.498;2023-06-24T06:23:09;100298.88;;;39.89;27.59
80294;BME280;69594;43.516;1.498;2023-06-24T06:25:35;100291.47;;;40.02;27.76
80294;BME280;69594;43.516;1.498;2023-06-24T06:28:02;100291.16;;;40.81;26.64
80294;BME280;69594;43.516;1.498;2023-06-24T06:30:28;100303.44;;;41.20;26.02
80294;BME280;69594;43.516;1.498;2023-06-24T06:32:53;100294.25;;;41.40;25.57
80294;BME280;69594;43.516;1.498;2023-06-24T06:35:18;100293.00;;;42.02;25.35
80294;BME280;69594;43.516;1.498;2023-06-24T06:37:44;100291.41;;;42.45;24.71
80294;BME280;69594;43.516;1.498;2023-06-24T06:40:11;100289.59;;;42.80;24.54
80294;BME280;69594;43.516;1.498;2023-06-24T06:42:37;100293.03;;;42.93;24.06
80294;BME280;69594;43.516;1.498;2023-06-24T06:45:03;100300.31;;;43.16;23.76
80294;BME280;69594;43.516;1.498;2023-06-24T06:47:30;100294.91;;;43.55;23.66
80294;BME280;69594;43.516;1.498;2023-06-24T06:49:55;100289.06;;;43.41;23.70
80294;BME280;69594;43.516;1.498;2023-06-24T06:52:21;100284.84;;;43.12;23.45
80294;BME280;69594;43.516;1.498;2023-06-24T06:54:46;100283.88;;;43.04;22.93
80294;BME280;69594;43.516;1.498;2023-06-24T06:57:12;100284.13;;;42.24;23.87
80294;BME280;69594;43.516;1.498;2023-06-24T06:59:37;100284.91;;;42.37;24.08
80294;BME280;69594;43.516;1.498;2023-06-24T07:02:05;100283.31;;;42.67;23.60
80294;BME280;69594;43.516;1.498;2023-06-24T07:04:31;100288.84;;;42.24;23.67
80294;BME280;69594;43.516;1.498;2023-06-24T07:06:59;100291.34;;;42.88;23.42
80294;BME280;69594;43.516;1.498;2023-06-24T07:09:25;100288.41;;;43.63;22.91
80294;BME280;69594;43.516;1.498;2023-06-24T07:11:50;100288.78;;;44.42;22.47
80294;BME280;69594;43.516;1.498;2023-06-24T07:14:15;100288.03;;;44.87;21.64
80294;BME280;69594;43.516;1.498;2023-06-24T07:16:41;100281.19;;;44.58;21.51
80294;BME280;69594;43.516;1.498;2023-06-24T07:19:06;100278.31;;;44.51;21.89
80294;BME280;69594;43.516;1.498;2023-06-24T07:21:31;100276.41;;;45.31;21.36
80294;BME280;69594;43.516;1.498;2023-06-24T07:23:57;100272.38;;;45.81;21.07
80294;BME280;69594;43.516;1.498;2023-06-24T07:26:23;100282.38;;;46.22;20.39
80294;BME280;69594;43.516;1.498;2023-06-24T07:28:48;100279.03;;;46.46;20.39
80294;BME280;69594;43.516;1.498;2023-06-24T07:31:14;100279.06;;;46.13;20.59
80294;BME280;69594;43.516;1.498;2023-06-24T07:33:39;100280.81;;;45.91;20.93
80294;BME280;69594;43.516;1.498;2023-06-24T07:36:05;100281.03;;;46.49;20.03
80294;BME280;69594;43.516;1.498;2023-06-24T07:38:30;100276.50;;;46.27;20.24
80294;BME280;69594;43.516;1.498;2023-06-24T07:40:56;100262.00;;;45.44;20.91
80294;BME280;69594;43.516;1.498;2023-06-24T07:43:21;100260.69;;;45.64;20.40
80294;BME280;69594;43.516;1.498;2023-06-24T07:45:47;100267.66;;;46.18;19.86
80294;BME280;69594;43.516;1.498;2023-06-24T07:48:12;100264.84;;;46.55;19.76
80294;BME280;69594;43.516;1.498;2023-06-24T07:50:38;100253.53;;;45.63;19.73
80294;BME280;69594;43.516;1.498;2023-06-24T07:53:04;100255.56;;;46.00;19.63
80294;BME280;69594;43.516;1.498;2023-06-24T07:55:30;100254.84;;;46.91;19.11
80294;BME280;69594;43.516;1.498;2023-06-24T07:57:55;100249.47;;;47.19;18.59
80294;BME280;69594;43.516;1.498;2023-06-24T08:00:20;100250.53;;;47.66;18.18
80294;BME280;69594;43.516;1.498;2023-06-24T08:02:46;100251.06;;;47.20;18.09
80294;BME280;69594;43.516;1.498;2023-06-24T08:05:12;100251.00;;;47.10;18.36
80294;BME280;69594;43.516;1.498;2023-06-24T08:07:37;100242.03;;;47.30;18.04
80294;BME280;69594;43.516;1.498;2023-06-24T08:10:04;100244.91;;;47.55;17.89
80294;BME280;69594;43.516;1.498;2023-06-24T08:12:32;100241.13;;;48.02;17.43
80294;BME280;69594;43.516;1.498;2023-06-24T08:14:58;100248.59;;;47.77;17.08
80294;BME280;69594;43.516;1.498;2023-06-24T08:17:23;100245.75;;;47.63;16.90
80294;BME280;69594;43.516;1.498;2023-06-24T08:19:48;100243.41;;;47.72;16.69
80294;BME280;69594;43.516;1.498;2023-06-24T08:22:14;100238.75;;;48.08;16.93
80294;BME280;69594;43.516;1.498;2023-06-24T08:24:40;100233.97;;;48.08;16.84
80294;BME280;69594;43.516;1.498;2023-06-24T08:27:05;100238.09;;;47.42;16.79
80294;BME280;69594;43.516;1.498;2023-06-24T08:29:31;100217.94;;;47.63;16.79
80294;BME280;69594;43.516;1.498;2023-06-24T08:31:56;100230.97;;;46.83;17.43
80294;BME280;69594;43.516;1.498;2023-06-24T08:34:21;100226.44;;;47.15;16.64
80294;BME280;69594;43.516;1.498;2023-06-24T08:36:47;100215.38;;;46.20;17.38
80294;BME280;69594;43.516;1.498;2023-06-24T08:39:13;100220.78;;;46.06;17.82
80294;BME280;69594;43.516;1.498;2023-06-24T08:41:38;100212.72;;;46.34;17.44
80294;BME280;69594;43.516;1.498;2023-06-24T08:44:04;100211.81;;;45.86;17.70
80294;BME280;69594;43.516;1.498;2023-06-24T08:46:30;100209.25;;;45.70;17.72
80294;BME280;69594;43.516;1.498;2023-06-24T08:49:05;100200.81;;;45.90;16.92
80294;BME280;69594;43.516;1.498;2023-06-24T08:51:39;100206.88;;;45.69;17.39
80294;BME280;69594;43.516;1.498;2023-06-24T08:54:07;100202.19;;;44.38;18.09
80294;BME280;69594;43.516;1.498;2023-06-24T08:56:34;100195.28;;;44.74;17.87
80294;BME280;69594;43.516;1.498;2023-06-24T08:59:00;100197.22;;;45.00;18.17
80294;BME280;69594;43.516;1.498;2023-06-24T09:01:28;100191.53;;;44.89;18.46
80294;BME280;69594;43.516;1.498;2023-06-24T09:03:54;100187.06;;;44.32;18.65
80294;BME280;69594;43.516;1.498;2023-06-24T09:06:20;100176.38;;;43.11;19.61
80294;BME280;69594;43.516;1.498;2023-06-24T09:08:53;100179.22;;;43.15;19.16
80294;BME280;69594;43.516;1.498;2023-06-24T09:11:23;100179.31;;;43.03;19.42
80294;BME280;69594;43.516;1.498;2023-06-24T09:13:55;100175.19;;;43.47;19.17
80294;BME280;69594;43.516;1.498;2023-06-24T09:16:20;100171.53;;;42.89;20.28
80294;BME280;69594;43.516;1.498;2023-06-24T09:18:50;100168.34;;;42.56;19.95
80294;BME280;69594;43.516;1.498;2023-06-24T09:21:23;100169.34;;;42.79;20.04
80294;BME280;69594;43.516;1.498;2023-06-24T09:23:54;100157.88;;;42.96;19.67
80294;BME280;69594;43.516;1.498;2023-06-24T09:26:22;100162.94;;;42.75;20.30
80294;BME280;69594;43.516;1.498;2023-06-24T09:28:48;100161.50;;;42.50;20.92
80294;BME280;69594;43.516;1.498;2023-06-24T09:31:17;100163.25;;;41.95;21.48
80294;BME280;69594;43.516;1.498;2023-06-24T09:33:43;100165.78;;;41.32;20.81
80294;BME280;69594;43.516;1.498;2023-06-24T09:36:12;100146.78;;;40.18;21.53
80294;BME280;69594;43.516;1.498;2023-06-24T09:38:40;100138.06;;;39.38;22.41
80294;BME280;69594;43.516;1.498;2023-06-24T09:41:06;100143.00;;;39.24;22.71
80294;BME280;69594;43.516;1.498;2023-06-24T09:43:36;100134.16;;;38.68;23.31
80294;BME280;69594;43.516;1.498;2023-06-24T09:46:06;100140.78;;;38.67;23.17
80294;BME280;69594;43.516;1.498;2023-06-24T09:48:33;100126.66;;;38.18;23.47
80294;BME280;69594;43.516;1.498;2023-06-24T09:51:04;100126.75;;;37.58;24.11
80294;BME280;69594;43.516;1.498;2023-06-24T09:53:34;100123.13;;;36.72;24.71
80294;BME280;69594;43.516;1.498;2023-06-24T09:56:01;100118.91;;;35.51;26.34
80294;BME280;69594;43.516;1.498;2023-06-24T09:58:33;100121.72;;;34.60;27.00
80294;BME280;69594;43.516;1.498;2023-06-24T10:01:05;100114.84;;;33.89;27.64
80294;BME280;69594;43.516;1.498;2023-06-24T10:03:40;100117.84;;;33.74;28.34
80294;BME280;69594;43.516;1.498;2023-06-24T10:06:06;100105.91;;;33.38;28.68
80294;BME280;69594;43.516;1.498;2023-06-24T10:08:33;100110.50;;;32.81;28.97
80294;BME280;69594;43.516;1.498;2023-06-24T10:11:01;100106.03;;;32.19;29.26
80294;BME280;69594;43.516;1.498;2023-06-24T10:13:28;100104.19;;;31.85;29.73
80294;BME280;69594;43.516;1.498;2023-06-24T10:15:56;100098.03;;;31.75;29.69
80294;BME280;69594;43.516;1.498;2023-06-24T10:18:34;100097.63;;;31.57;30.12
80294;BME280;69594;43.516;1.498;2023-06-24T10:21:00;100085.28;;;30.92;30.49
80294;BME280;69594;43.516;1.498;2023-06-24T10:23:54;100091.63;;;30.72;31.08
80294;BME280;69594;43.516;1.498;2023-06-24T10:31:51;100076.94;;;30.09;31.92
80294;BME280;69594;43.516;1.498;2023-06-24T10:44:50;100066.88;;;30.20;32.49
80294;BME280;69594;43.516;1.498;2023-06-24T10:47:16;100060.13;;;30.12;32.91
80294;BME280;69594;43.516;1.498;2023-06-24T10:49:41;100055.81;;;30.01;33.73
80294;BME280;69594;43.516;1.498;2023-06-24T10:52:11;100058.78;;;30.15;34.34
80294;BME280;69594;43.516;1.498;2023-06-24T10:54:37;100052.25;;;30.31;33.50
80294;BME280;69594;43.516;1.498;2023-06-24T10:57:04;100044.97;;;30.11;34.14
80294;BME280;69594;43.516;1.498;2023-06-24T10:59:46;100045.00;;;29.86;35.09
80294;BME280;69594;43.516;1.498;2023-06-24T11:02:16;100030.41;;;29.87;35.01
80294;BME280;69594;43.516;1.498;2023-06-24T11:04:46;100039.34;;;29.92;33.95
80294;BME280;69594;43.516;1.498;2023-06-24T11:07:13;100049.38;;;29.92;32.97
80294;BME280;69594;43.516;1.498;2023-06-24T11:09:40;100040.97;;;29.88;33.77
80294;BME280;69594;43.516;1.498;2023-06-24T11:12:10;100053.41;;;29.84;32.61
80294;BME280;69594;43.516;1.498;2023-06-24T11:14:38;100046.09;;;29.75;32.80
80294;BME280;69594;43.516;1.498;2023-06-24T11:17:07;100043.13;;;29.86;32.98
80294;BME280;69594;43.516;1.498;2023-06-24T11:19:33;100042.03;;;29.87;33.06
80294;BME280;69594;43.516;1.498;2023-06-24T11:22:00;100048.00;;;29.74;33.05
80294;BME280;69594;43.516;1.498;2023-06-24T11:24:29;100039.63;;;29.61;33.48
80294;BME280;69594;43.516;1.498;2023-06-24T11:26:55;100040.19;;;29.63;33.07
80294;BME280;69594;43.516;1.498;2023-06-24T11:29:28;100032.34;;;29.51;32.81
80294;BME280;69594;43.516;1.498;2023-06-24T11:31:54;100030.22;;;29.43;32.89
80294;BME280;69594;43.516;1.498;2023-06-24T11:34:20;100030.22;;;29.48;32.72
80294;BME280;69594;43.516;1.498;2023-06-24T11:36:47;100028.56;;;29.57;32.87
80294;BME280;69594;43.516;1.498;2023-06-24T11:39:26;100031.28;;;29.47;32.34
80294;BME280;69594;43.516;1.498;2023-06-24T11:41:57;100021.53;;;29.61;32.86
80294;BME280;69594;43.516;1.498;2023-06-24T11:44:26;100010.97;;;29.75;33.43
80294;BME280;69594;43.516;1.498;2023-06-24T11:46:51;100017.19;;;29.65;33.60
80294;BME280;69594;43.516;1.498;2023-06-24T11:49:17;100012.88;;;29.64;34.39
80294;BME280;69594;43.516;1.498;2023-06-24T11:51:48;100006.13;;;29.67;35.47
80294;BME280;69594;43.516;1.498;2023-06-24T11:54:15;100005.88;;;29.63;35.23
80294;BME280;69594;43.516;1.498;2023-06-24T11:56:42;100004.50;;;29.55;35.53
80294;BME280;69594;43.516;1.498;2023-06-24T11:59:18;99995.56;;;29.65;35.59
80294;BME280;69594;43.516;1.498;2023-06-24T12:01:55;99994.47;;;29.71;34.50
80294;BME280;69594;43.516;1.498;2023-06-24T12:04:21;99996.91;;;29.83;34.44
80294;BME280;69594;43.516;1.498;2023-06-24T12:06:52;99994.72;;;29.90;34.23
80294;BME280;69594;43.516;1.498;2023-06-24T12:09:17;99985.25;;;29.82;34.20
80294;BME280;69594;43.516;1.498;2023-06-24T12:11:43;99979.56;;;29.89;34.37
80294;BME280;69594;43.516;1.498;2023-06-24T12:14:08;99988.53;;;29.94;34.36
80294;BME280;69594;43.516;1.498;2023-06-24T12:16:34;99988.75;;;29.98;34.29
80294;BME280;69594;43.516;1.498;2023-06-24T12:19:00;99975.78;;;29.90;34.99
80294;BME280;69594;43.516;1.498;2023-06-24T12:21:26;99978.22;;;29.96;34.89
80294;BME280;69594;43.516;1.498;2023-06-24T12:23:52;99975.47;;;30.07;34.23
80294;BME280;69594;43.516;1.498;2023-06-24T12:26:18;99968.47;;;30.01;34.26
80294;BME280;69594;43.516;1.498;2023-06-24T12:28:43;99973.63;;;29.92;34.58
80294;BME280;69594;43.516;1.498;2023-06-24T12:31:09;99974.69;;;29.96;34.25
80294;BME280;69594;43.516;1.498;2023-06-24T12:33:34;99969.84;;;29.98;33.96
80294;BME280;69594;43.516;1.498;2023-06-24T12:36:00;99972.25;;;30.05;33.77
80294;BME280;69594;43.516;1.498;2023-06-24T12:38:25;99964.13;;;30.10;33.58
80294;BME280;69594;43.516;1.498;2023-06-24T12:40:50;99952.97;;;30.16;33.28
80294;BME280;69594;43.516;1.498;2023-06-24T12:43:16;99952.44;;;30.19;33.74
80294;BME280;69594;43.516;1.498;2023-06-24T12:45:43;99947.84;;;30.15;33.71
80294;BME280;69594;43.516;1.498;2023-06-24T12:48:12;99955.94;;;30.25;33.26
80294;BME280;69594;43.516;1.498;2023-06-24T12:50:38;99953.78;;;30.17;33.22
80294;BME280;69594;43.516;1.498;2023-06-24T12:53:07;99948.38;;;30.17;33.75
80294;BME280;69594;43.516;1.498;2023-06-24T12:55:32;99944.84;;;30.21;33.45
80294;BME280;69594;43.516;1.498;2023-06-24T12:57:58;99942.94;;;30.22;33.78
80294;BME280;69594;43.516;1.498;2023-06-24T13:00:24;99946.16;;;30.29;33.54
80294;BME280;69594;43.516;1.498;2023-06-24T13:02:50;99947.81;;;30.25;34.02
80294;BME280;69594;43.516;1.498;2023-06-24T13:05:17;99947.22;;;30.33;34.11
80294;BME280;69594;43.516;1.498;2023-06-24T13:07:43;99946.16;;;30.29;33.73
80294;BME280;69594;43.516;1.498;2023-06-24T13:10:09;99939.09;;;30.33;33.74
80294;BME280;69594;43.516;1.498;2023-06-24T13:12:36;99935.84;;;30.36;33.89
80294;BME280;69594;43.516;1.498;2023-06-24T13:15:03;99929.59;;;30.40;33.49